sensor_id;sensor_type;location;lat;lon;timestamp;temperature;humidity
39849;DHT22;25518;47.878;15.914;2023-10-31T00:00:51;16.40;99.90
39849;DHT22;25518;47.878;15.914;2023-10-31T00:03:43;16.50;99.90
39849;DHT22;25518;47.878;15.914;2023-10-31T00:06:35;16.70;99.90
39849;DHT22;25518;47.878;15.914;2023-10-31T00:09:26;17.00;99.90
39849;DHT22;25518;47.878;15.914;2023-10-31T00:12:18;17.00;99.90
39849;DHT22;25518;47.878;15.914;2023-10-31T00:15:09;17.20;99.90
39849;DHT22;25518;47.878;15.914;2023-10-31T00:18:01;17.00;99.90
39849;DHT22;25518;47.878;15.914;2023-10-31T00:20:52;17.00;99.90
39849;DHT22;25518;47.878;15.914;2023-10-31T00:23:44;17.20;99.90
39849;DHT22;25518;47.878;15.914;2023-10-31T00:26:36;17.40;99.90
39849;DHT22;25518;47.878;15.914;2023-10-31T00:29:27;17.40;99.90
39849;DHT22;25518;47.878;15.914;2023-10-31T00:32:18;17.10;99.90
39849;DHT22;25518;47.878;15.914;2023-10-31T00:35:10;16.80;99.90
39849;DHT22;25518;47.878;15.914;2023-10-31T00:38:03;16.60;99.90
39849;DHT22;25518;47.878;15.914;2023-10-31T00:40:54;16.70;99.90
39849;DHT22;25518;47.878;15.914;2023-10-31T00:43:46;16.50;99.90
39849;DHT22;25518;47.878;15.914;2023-10-31T00:46:37;16.90;99.90
39849;DHT22;25518;47.878;15.914;2023-10-31T00:49:28;17.30;99.90
39849;DHT22;25518;47.878;15.914;2023-10-31T00:52:19;17.30;99.90
39849;DHT22;25518;47.878;15.914;2023-10-31T00:55:11;17.20;99.90
39849;DHT22;25518;47.878;15.914;2023-10-31T00:58:02;17.30;99.90
39849;DHT22;25518;47.878;15.914;2023-10-31T01:00:53;17.40;99.90
39849;DHT22;25518;47.878;15.914;2023-10-31T01:03:45;17.50;99.90
39849;DHT22;25518;47.878;15.914;2023-10-31T01:06:43;17.10;99.90
39849;DHT22;25518;47.878;15.914;2023-10-31T01:09:34;17.10;99.90
39849;DHT22;25518;47.878;15.914;2023-10-31T01:12:26;17.10;99.90
39849;DHT22;25518;47.878;15.914;2023-10-31T01:15:18;17.20;99.90
39849;DHT22;25518;47.878;15.914;2023-10-31T01:18:10;17.90;99.90
39849;DHT22;25518;47.878;15.914;2023-10-31T01:21:01;17.60;99.90
39849;DHT22;25518;47.878;15.914;2023-10-31T01:23:52;17.90;99.90
39849;DHT22;25518;47.878;15.914;2023-10-31T01:26:43;18.00;99.90
39849;DHT22;25518;47.878;15.914;2023-10-31T01:29:35;18.20;99.90
39849;DHT22;25518;47.878;15.914;2023-10-31T01:32:26;17.80;99.90
39849;DHT22;25518;47.878;15.914;2023-10-31T01:35:17;17.90;99.90
39849;DHT22;25518;47.878;15.914;2023-10-31T01:38:08;17.50;99.90
39849;DHT22;25518;47.878;15.914;2023-10-31T01:41:00;17.60;99.90
39849;DHT22;25518;47.878;15.914;2023-10-31T01:43:51;18.00;99.90
39849;DHT22;25518;47.878;15.914;2023-10-31T01:46:42;17.90;99.90
39849;DHT22;25518;47.878;15.914;2023-10-31T01:49:36;17.70;99.90
39849;DHT22;25518;47.878;15.914;2023-10-31T01:52:27;17.30;99.90
39849;DHT22;25518;47.878;15.914;2023-10-31T01:55:20;17.10;99.90
39849;DHT22;25518;47.878;15.914;2023-10-31T01:58:14;17.20;99.90
39849;DHT22;25518;47.878;15.914;2023-10-31T02:01:06;17.40;99.90
39849;DHT22;25518;47.878;15.914;2023-10-31T02:03:58;17.50;99.90
39849;DHT22;25518;47.878;15.914;2023-10-31T02:06:49;16.20;99.90
39849;DHT22;25518;47.878;15.914;2023-10-31T02:09:41;17.30;99.90
39849;DHT22;25518;47.878;15.914;2023-10-31T02:12:35;17.50;99.90
39849;DHT22;25518;47.878;15.914;2023-10-31T02:15:26;17.60;99.90
39849;DHT22;25518;47.878;15.914;2023-10-31T02:18:18;17.10;99.90
39849;DHT22;25518;47.878;15.914;2023-10-31T02:21:09;17.70;99.90
39849;DHT22;25518;47.878;15.914;2023-10-31T02:24:02;17.10;99.90
39849;DHT22;25518;47.878;15.914;2023-10-31T02:26:54;16.90;99.90
39849;DHT22;25518;47.878;15.914;2023-10-31T02:29:45;16.50;99.90
39849;DHT22;25518;47.878;15.914;2023-10-31T02:32:37;16.60;99.90
39849;DHT22;25518;47.878;15.914;2023-10-31T02:35:28;16.50;99.90
39849;DHT22;25518;47.878;15.914;2023-10-31T02:38:19;16.30;99.90
39849;DHT22;25518;47.878;15.914;2023-10-31T02:41:11;16.20;99.90
39849;DHT22;25518;47.878;15.914;2023-10-31T02:44:03;16.30;99.90
39849;DHT22;25518;47.878;15.914;2023-10-31T02:46:55;16.20;99.90
39849;DHT22;25518;47.878;15.914;2023-10-31T02:49:46;16.50;99.90
39849;DHT22;25518;47.878;15.914;2023-10-31T02:52:37;16.80;99.90
39849;DHT22;25518;47.878;15.914;2023-10-31T02:55:29;16.80;99.90
39849;DHT22;25518;47.878;15.914;2023-10-31T02:58:20;16.60;99.90
39849;DHT22;25518;47.878;15.914;2023-10-31T03:01:11;16.50;99.90
39849;DHT22;25518;47.878;15.914;2023-10-31T03:04:03;16.40;99.90
39849;DHT22;25518;47.878;15.914;2023-10-31T03:06:54;16.30;99.90
39849;DHT22;25518;47.878;15.914;2023-10-31T03:09:45;16.40;99.90
39849;DHT22;25518;47.878;15.914;2023-10-31T03:12:37;16.30;99.90
39849;DHT22;25518;47.878;15.914;2023-10-31T03:15:28;16.20;99.90
39849;DHT22;25518;47.878;15.914;2023-10-31T03:18:19;16.10;99.90
39849;DHT22;25518;47.878;15.914;2023-10-31T03:21:10;16.00;99.90
39849;DHT22;25518;47.878;15.914;2023-10-31T03:24:02;15.80;99.90
39849;DHT22;25518;47.878;15.914;2023-10-31T03:26:53;15.70;99.90
39849;DHT22;25518;47.878;15.914;2023-10-31T03:29:46;15.70;99.90
39849;DHT22;25518;47.878;15.914;2023-10-31T03:32:37;15.60;99.90
39849;DHT22;25518;47.878;15.914;2023-10-31T03:35:28;15.40;99.90
39849;DHT22;25518;47.878;15.914;2023-10-31T03:38:19;15.30;99.90
39849;DHT22;25518;47.878;15.914;2023-10-31T03:41:11;15.10;99.90
39849;DHT22;25518;47.878;15.914;2023-10-31T03:44:02;15.20;99.90
39849;DHT22;25518;47.878;15.914;2023-10-31T03:46:53;15.20;99.90
39849;DHT22;25518;47.878;15.914;2023-10-31T03:49:44;15.00;99.90
39849;DHT22;25518;47.878;15.914;2023-10-31T03:52:36;15.20;99.90
39849;DHT22;25518;47.878;15.914;2023-10-31T03:55:27;15.40;99.90
39849;DHT22;25518;47.878;15.914;2023-10-31T03:58:18;15.40;99.90
39849;DHT22;25518;47.878;15.914;2023-10-31T04:01:10;15.30;99.90
39849;DHT22;25518;47.878;15.914;2023-10-31T04:04:01;15.20;99.90
39849;DHT22;25518;47.878;15.914;2023-10-31T04:06:53;15.00;99.90
39849;DHT22;25518;47.878;15.914;2023-10-31T04:09:45;14.80;99.90
39849;DHT22;25518;47.878;15.914;2023-10-31T04:12:36;14.70;99.90
39849;DHT22;25518;47.878;15.914;2023-10-31T04:15:27;14.60;99.90
39849;DHT22;25518;47.878;15.914;2023-10-31T04:18:19;14.40;99.90
39849;DHT22;25518;47.878;15.914;2023-10-31T04:21:10;14.50;99.90
39849;DHT22;25518;47.878;15.914;2023-10-31T04:24:01;13.70;99.90
39849;DHT22;25518;47.878;15.914;2023-10-31T04:26:53;14.10;99.90
39849;DHT22;25518;47.878;15.914;2023-10-31T04:29:45;14.10;99.90
39849;DHT22;25518;47.878;15.914;2023-10-31T04:32:36;14.00;99.90
39849;DHT22;25518;47.878;15.914;2023-10-31T04:35:28;14.00;99.90
39849;DHT22;25518;47.878;15.914;2023-10-31T04:38:19;13.90;99.90
39849;DHT22;25518;47.878;15.914;2023-10-31T04:41:10;13.90;99.90
39849;DHT22;25518;47.878;15.914;2023-10-31T04:44:01;13.80;99.90
39849;DHT22;25518;47.878;15.914;2023-10-31T04:46:53;13.70;99.90
39849;DHT22;25518;47.878;15.914;2023-10-31T04:49:45;13.60;99.90
39849;DHT22;25518;47.878;15.914;2023-10-31T04:52:36;11.30;99.90
39849;DHT22;25518;47.878;15.914;2023-10-31T04:55:27;13.50;99.90
39849;DHT22;25518;47.878;15.914;2023-10-31T04:58:19;13.30;99.90
39849;DHT22;25518;47.878;15.914;2023-10-31T05:01:12;13.30;99.90
39849;DHT22;25518;47.878;15.914;2023-10-31T05:04:04;13.10;99.90
39849;DHT22;25518;47.878;15.914;2023-10-31T05:06:55;13.00;99.90
39849;DHT22;25518;47.878;15.914;2023-10-31T05:09:47;12.90;99.90
39849;DHT22;25518;47.878;15.914;2023-10-31T05:12:38;12.70;99.90
39849;DHT22;25518;47.878;15.914;2023-10-31T05:15:29;12.70;99.90
39849;DHT22;25518;47.878;15.914;2023-10-31T05:18:20;12.60;99.90
39849;DHT22;25518;47.878;15.914;2023-10-31T05:21:12;12.30;99.90
39849;DHT22;25518;47.878;15.914;2023-10-31T05:24:03;12.30;99.90
39849;DHT22;25518;47.878;15.914;2023-10-31T05:26:55;12.20;99.90
39849;DHT22;25518;47.878;15.914;2023-10-31T05:29:47;12.10;99.90
39849;DHT22;25518;47.878;15.914;2023-10-31T05:32:38;12.10;99.90
39849;DHT22;25518;47.878;15.914;2023-10-31T05:35:30;12.10;99.90
39849;DHT22;25518;47.878;15.914;2023-10-31T05:38:21;12.10;99.90
39849;DHT22;25518;47.878;15.914;2023-10-31T05:41:13;11.90;99.90
39849;DHT22;25518;47.878;15.914;2023-10-31T05:44:05;11.90;99.90
39849;DHT22;25518;47.878;15.914;2023-10-31T05:46:56;11.80;99.90
39849;DHT22;25518;47.878;15.914;2023-10-31T05:49:47;11.80;99.90
39849;DHT22;25518;47.878;15.914;2023-10-31T05:52:38;11.60;99.90
39849;DHT22;25518;47.878;15.914;2023-10-31T05:55:30;10.90;99.90
39849;DHT22;25518;47.878;15.914;2023-10-31T05:58:21;11.50;99.90
39849;DHT22;25518;47.878;15.914;2023-10-31T06:01:13;11.50;99.90
39849;DHT22;25518;47.878;15.914;2023-10-31T06:04:04;11.50;99.90
39849;DHT22;25518;47.878;15.914;2023-10-31T06:06:56;11.50;99.90
39849;DHT22;25518;47.878;15.914;2023-10-31T06:09:47;11.50;99.90
39849;DHT22;25518;47.878;15.914;2023-10-31T06:12:38;11.50;99.90
39849;DHT22;25518;47.878;15.914;2023-10-31T06:15:30;11.50;99.90
39849;DHT22;25518;47.878;15.914;2023-10-31T06:18:22;11.50;99.90
39849;DHT22;25518;47.878;15.914;2023-10-31T06:21:13;11.50;99.90
39849;DHT22;25518;47.878;15.914;2023-10-31T06:24:05;11.50;99.90
39849;DHT22;25518;47.878;15.914;2023-10-31T06:26:56;11.50;99.90
39849;DHT22;25518;47.878;15.914;2023-10-31T06:29:47;11.50;99.90
39849;DHT22;25518;47.878;15.914;2023-10-31T06:32:39;11.50;99.90
39849;DHT22;25518;47.878;15.914;2023-10-31T06:35:31;11.50;99.90
39849;DHT22;25518;47.878;15.914;2023-10-31T06:38:22;11.50;99.90
39849;DHT22;25518;47.878;15.914;2023-10-31T06:41:14;11.60;99.90
39849;DHT22;25518;47.878;15.914;2023-10-31T06:44:05;11.60;99.90
39849;DHT22;25518;47.878;15.914;2023-10-31T06:46:57;11.70;99.90
39849;DHT22;25518;47.878;15.914;2023-10-31T06:49:48;11.60;99.90
39849;DHT22;25518;47.878;15.914;2023-10-31T06:52:39;11.60;99.90
39849;DHT22;25518;47.878;15.914;2023-10-31T06:55:31;11.50;99.90
39849;DHT22;25518;47.878;15.914;2023-10-31T06:58:22;11.50;99.90
39849;DHT22;25518;47.878;15.914;2023-10-31T07:01:15;11.50;99.90
39849;DHT22;25518;47.878;15.914;2023-10-31T07:04:09;11.50;99.90
39849;DHT22;25518;47.878;15.914;2023-10-31T07:07:00;11.50;99.90
39849;DHT22;25518;47.878;15.914;2023-10-31T07:09:52;11.50;99.90
39849;DHT22;25518;47.878;15.914;2023-10-31T07:12:43;11.50;99.90
39849;DHT22;25518;47.878;15.914;2023-10-31T07:15:35;11.50;99.90
39849;DHT22;25518;47.878;15.914;2023-10-31T07:18:30;11.60;99.90
39849;DHT22;25518;47.878;15.914;2023-10-31T07:21:21;11.60;99.90
39849;DHT22;25518;47.878;15.914;2023-10-31T07:24:12;11.60;99.90
39849;DHT22;25518;47.878;15.914;2023-10-31T07:27:04;11.60;99.90
39849;DHT22;25518;47.878;15.914;2023-10-31T07:29:59;11.70;99.90
39849;DHT22;25518;47.878;15.914;2023-10-31T07:32:51;11.70;99.90
39849;DHT22;25518;47.878;15.914;2023-10-31T07:35:42;11.70;99.90
39849;DHT22;25518;47.878;15.914;2023-10-31T07:38:33;11.60;99.90
39849;DHT22;25518;47.878;15.914;2023-10-31T07:41:26;11.60;99.90
39849;DHT22;25518;47.878;15.914;2023-10-31T07:44:17;11.60;99.90
39849;DHT22;25518;47.878;15.914;2023-10-31T07:47:09;11.70;99.90
39849;DHT22;25518;47.878;15.914;2023-10-31T07:50:00;11.70;99.90
39849;DHT22;25518;47.878;15.914;2023-10-31T07:52:51;11.60;99.90
39849;DHT22;25518;47.878;15.914;2023-10-31T07:55:44;11.60;99.90
39849;DHT22;25518;47.878;15.914;2023-10-31T07:58:35;11.70;99.90
39849;DHT22;25518;47.878;15.914;2023-10-31T08:01:26;11.70;99.90
39849;DHT22;25518;47.878;15.914;2023-10-31T08:04:19;11.70;99.90
39849;DHT22;25518;47.878;15.914;2023-10-31T08:07:10;11.70;99.90
39849;DHT22;25518;47.878;15.914;2023-10-31T08:10:02;11.60;99.90
39849;DHT22;25518;47.878;15.914;2023-10-31T08:12:54;11.60;99.90
39849;DHT22;25518;47.878;15.914;2023-10-31T08:15:46;11.60;99.90
39849;DHT22;25518;47.878;15.914;2023-10-31T08:18:37;11.60;99.90
39849;DHT22;25518;47.878;15.914;2023-10-31T08:21:28;11.60;99.90
39849;DHT22;25518;47.878;15.914;2023-10-31T08:24:24;11.60;99.90
39849;DHT22;25518;47.878;15.914;2023-10-31T08:27:15;11.70;99.90
39849;DHT22;25518;47.878;15.914;2023-10-31T08:30:07;11.70;99.90
39849;DHT22;25518;47.878;15.914;2023-10-31T08:32:59;11.60;99.90
39849;DHT22;25518;47.878;15.914;2023-10-31T08:35:50;11.60;99.90
39849;DHT22;25518;47.878;15.914;2023-10-31T08:38:41;11.50;99.90
39849;DHT22;25518;47.878;15.914;2023-10-31T08:41:33;11.50;99.90
39849;DHT22;25518;47.878;15.914;2023-10-31T08:44:24;11.50;99.90
39849;DHT22;25518;47.878;15.914;2023-10-31T08:47:16;11.60;99.90
39849;DHT22;25518;47.878;15.914;2023-10-31T08:50:09;11.50;99.90
39849;DHT22;25518;47.878;15.914;2023-10-31T08:53:02;11.50;99.90
39849;DHT22;25518;47.878;15.914;2023-10-31T08:55:53;11.60;99.90
39849;DHT22;25518;47.878;15.914;2023-10-31T08:58:44;11.60;99.90
39849;DHT22;25518;47.878;15.914;2023-10-31T09:01:36;11.60;99.90
39849;DHT22;25518;47.878;15.914;2023-10-31T09:04:27;11.60;99.90
39849;DHT22;25518;47.878;15.914;2023-10-31T09:07:19;11.60;99.90
39849;DHT22;25518;47.878;15.914;2023-10-31T09:10:11;11.50;99.90
39849;DHT22;25518;47.878;15.914;2023-10-31T09:13:02;11.50;99.90
39849;DHT22;25518;47.878;15.914;2023-10-31T09:15:53;11.40;99.90
39849;DHT22;25518;47.878;15.914;2023-10-31T09:18:45;11.40;99.90
39849;DHT22;25518;47.878;15.914;2023-10-31T09:21:38;11.40;99.90
39849;DHT22;25518;47.878;15.914;2023-10-31T09:24:29;11.30;99.90
39849;DHT22;25518;47.878;15.914;2023-10-31T09:27:20;11.20;99.90
39849;DHT22;25518;47.878;15.914;2023-10-31T09:30:11;11.20;99.90
39849;DHT22;25518;47.878;15.914;2023-10-31T09:33:03;11.20;99.90
39849;DHT22;25518;47.878;15.914;2023-10-31T09:35:54;11.10;99.90
39849;DHT22;25518;47.878;15.914;2023-10-31T09:38:45;11.00;99.90
39849;DHT22;25518;47.878;15.914;2023-10-31T09:41:36;10.80;99.90
39849;DHT22;25518;47.878;15.914;2023-10-31T09:44:28;10.70;99.90
39849;DHT22;25518;47.878;15.914;2023-10-31T09:47:20;10.50;99.90
39849;DHT22;25518;47.878;15.914;2023-10-31T09:50:11;10.30;99.90
39849;DHT22;25518;47.878;15.914;2023-10-31T09:53:04;10.20;99.90
39849;DHT22;25518;47.878;15.914;2023-10-31T09:55:58;10.00;99.90
39849;DHT22;25518;47.878;15.914;2023-10-31T09:58:49;9.70;99.90
39849;DHT22;25518;47.878;15.914;2023-10-31T10:01:40;9.60;99.90
39849;DHT22;25518;47.878;15.914;2023-10-31T10:04:33;9.50;99.90
39849;DHT22;25518;47.878;15.914;2023-10-31T10:07:26;9.40;99.90
39849;DHT22;25518;47.878;15.914;2023-10-31T10:10:17;9.40;99.90
39849;DHT22;25518;47.878;15.914;2023-10-31T10:13:10;9.40;99.90
39849;DHT22;25518;47.878;15.914;2023-10-31T10:16:03;9.40;99.90
39849;DHT22;25518;47.878;15.914;2023-10-31T10:18:54;9.20;99.90
39849;DHT22;25518;47.878;15.914;2023-10-31T10:21:52;9.20;99.90
39849;DHT22;25518;47.878;15.914;2023-10-31T10:24:44;9.20;99.90
39849;DHT22;25518;47.878;15.914;2023-10-31T10:27:35;9.10;99.90
39849;DHT22;25518;47.878;15.914;2023-10-31T10:30:27;9.10;99.90
39849;DHT22;25518;47.878;15.914;2023-10-31T10:33:20;9.00;99.90
39849;DHT22;25518;47.878;15.914;2023-10-31T10:36:12;9.00;99.90
39849;DHT22;25518;47.878;15.914;2023-10-31T10:39:06;8.90;99.90
39849;DHT22;25518;47.878;15.914;2023-10-31T10:42:01;8.90;99.90
39849;DHT22;25518;47.878;15.914;2023-10-31T10:44:56;8.90;99.90
39849;DHT22;25518;47.878;15.914;2023-10-31T10:47:50;8.70;99.90
39849;DHT22;25518;47.878;15.914;2023-10-31T10:50:43;8.70;99.90
39849;DHT22;25518;47.878;15.914;2023-10-31T10:53:50;8.70;99.90
39849;DHT22;25518;47.878;15.914;2023-10-31T10:56:48;8.50;99.90
39849;DHT22;25518;47.878;15.914;2023-10-31T10:59:47;8.50;99.90
39849;DHT22;25518;47.878;15.914;2023-10-31T11:02:43;8.50;99.90
39849;DHT22;25518;47.878;15.914;2023-10-31T11:05:36;8.50;99.90
39849;DHT22;25518;47.878;15.914;2023-10-31T11:08:28;8.40;99.90
39849;DHT22;25518;47.878;15.914;2023-10-31T11:11:21;8.30;99.90
39849;DHT22;25518;47.878;15.914;2023-10-31T11:14:15;7.30;99.90
39849;DHT22;25518;47.878;15.914;2023-10-31T11:17:14;8.30;99.90
39849;DHT22;25518;47.878;15.914;2023-10-31T11:20:11;8.40;99.90
39849;DHT22;25518;47.878;15.914;2023-10-31T11:23:05;8.30;99.90
39849;DHT22;25518;47.878;15.914;2023-10-31T11:25:58;8.20;99.90
39849;DHT22;25518;47.878;15.914;2023-10-31T11:28:51;8.10;99.90
39849;DHT22;25518;47.878;15.914;2023-10-31T11:31:42;8.10;99.90
39849;DHT22;25518;47.878;15.914;2023-10-31T11:34:38;8.10;99.90
39849;DHT22;25518;47.878;15.914;2023-10-31T11:37:33;7.50;99.90
39849;DHT22;25518;47.878;15.914;2023-10-31T11:40:25;8.10;99.90
39849;DHT22;25518;47.878;15.914;2023-10-31T11:43:17;7.10;99.90
39849;DHT22;25518;47.878;15.914;2023-10-31T11:46:28;8.30;99.90
39849;DHT22;25518;47.878;15.914;2023-10-31T11:49:47;8.50;99.90
39849;DHT22;25518;47.878;15.914;2023-10-31T11:52:39;8.40;99.90
39849;DHT22;25518;47.878;15.914;2023-10-31T11:55:33;8.30;99.90
39849;DHT22;25518;47.878;15.914;2023-10-31T11:58:25;8.30;99.90
39849;DHT22;25518;47.878;15.914;2023-10-31T12:01:16;7.70;99.90
39849;DHT22;25518;47.878;15.914;2023-10-31T12:04:07;8.30;99.90
39849;DHT22;25518;47.878;15.914;2023-10-31T12:06:59;8.60;99.90
39849;DHT22;25518;47.878;15.914;2023-10-31T12:09:52;8.80;99.90
39849;DHT22;25518;47.878;15.914;2023-10-31T12:12:43;8.80;99.90
39849;DHT22;25518;47.878;15.914;2023-10-31T12:15:34;9.00;99.90
39849;DHT22;25518;47.878;15.914;2023-10-31T12:18:25;8.70;99.90
39849;DHT22;25518;47.878;15.914;2023-10-31T12:21:17;8.70;99.90
39849;DHT22;25518;47.878;15.914;2023-10-31T12:24:10;8.70;99.90
39849;DHT22;25518;47.878;15.914;2023-10-31T12:27:02;8.80;99.90
39849;DHT22;25518;47.878;15.914;2023-10-31T12:30:01;8.80;99.90
39849;DHT22;25518;47.878;15.914;2023-10-31T12:32:55;8.80;99.90
39849;DHT22;25518;47.878;15.914;2023-10-31T12:35:49;8.90;99.90
39849;DHT22;25518;47.878;15.914;2023-10-31T12:38:40;9.10;99.90
39849;DHT22;25518;47.878;15.914;2023-10-31T12:41:32;9.20;99.90
39849;DHT22;25518;47.878;15.914;2023-10-31T12:44:25;9.00;99.90
39849;DHT22;25518;47.878;15.914;2023-10-31T12:47:22;8.90;99.90
39849;DHT22;25518;47.878;15.914;2023-10-31T12:50:15;8.90;99.90
39849;DHT22;25518;47.878;15.914;2023-10-31T12:53:08;8.90;99.90
39849;DHT22;25518;47.878;15.914;2023-10-31T12:55:59;8.80;99.90
39849;DHT22;25518;47.878;15.914;2023-10-31T12:58:57;8.80;99.90
39849;DHT22;25518;47.878;15.914;2023-10-31T13:01:49;8.90;99.90
39849;DHT22;25518;47.878;15.914;2023-10-31T13:04:41;8.80;99.90
39849;DHT22;25518;47.878;15.914;2023-10-31T13:07:32;8.70;99.90
39849;DHT22;25518;47.878;15.914;2023-10-31T13:10:24;8.70;99.90
39849;DHT22;25518;47.878;15.914;2023-10-31T13:13:16;8.80;99.90
39849;DHT22;25518;47.878;15.914;2023-10-31T13:16:07;8.80;99.90
39849;DHT22;25518;47.878;15.914;2023-10-31T13:18:58;8.90;99.90
39849;DHT22;25518;47.878;15.914;2023-10-31T13:21:50;8.80;99.90
39849;DHT22;25518;47.878;15.914;2023-10-31T13:24:42;8.80;99.90
39849;DHT22;25518;47.878;15.914;2023-10-31T13:27:34;8.90;99.90
39849;DHT22;25518;47.878;15.914;2023-10-31T13:30:26;8.90;99.90
39849;DHT22;25518;47.878;15.914;2023-10-31T13:33:17;9.00;99.90
39849;DHT22;25518;47.878;15.914;2023-10-31T13:36:10;8.90;99.90
39849;DHT22;25518;47.878;15.914;2023-10-31T15:38:13;8.90;99.90
39849;DHT22;25518;47.878;15.914;2023-10-31T15:41:05;8.70;99.90
39849;DHT22;25518;47.878;15.914;2023-10-31T15:43:57;8.80;99.90
39849;DHT22;25518;47.878;15.914;2023-10-31T15:46:48;8.80;99.90
39849;DHT22;25518;47.878;15.914;2023-10-31T15:49:40;8.80;99.90
39849;DHT22;25518;47.878;15.914;2023-10-31T15:52:31;8.80;99.90
39849;DHT22;25518;47.878;15.914;2023-10-31T15:55:22;8.80;99.90
39849;DHT22;25518;47.878;15.914;2023-10-31T15:58:13;8.80;99.90
39849;DHT22;25518;47.878;15.914;2023-10-31T16:01:05;8.70;99.90
39849;DHT22;25518;47.878;15.914;2023-10-31T16:03:56;8.80;99.90
39849;DHT22;25518;47.878;15.914;2023-10-31T16:06:48;8.90;99.90
39849;DHT22;25518;47.878;15.914;2023-10-31T16:09:39;8.90;99.90
39849;DHT22;25518;47.878;15.914;2023-10-31T16:12:30;9.00;99.90
39849;DHT22;25518;47.878;15.914;2023-10-31T16:15:21;9.00;99.90
39849;DHT22;25518;47.878;15.914;2023-10-31T16:18:23;9.00;99.90
39849;DHT22;25518;47.878;15.914;2023-10-31T16:21:23;9.00;99.90
39849;DHT22;25518;47.878;15.914;2023-10-31T16:24:14;8.90;99.90
39849;DHT22;25518;47.878;15.914;2023-10-31T16:27:06;9.00;99.90
39849;DHT22;25518;47.878;15.914;2023-10-31T16:29:57;8.90;99.90
39849;DHT22;25518;47.878;15.914;2023-10-31T16:32:48;8.90;99.90
39849;DHT22;25518;47.878;15.914;2023-10-31T16:35:40;9.00;99.90
39849;DHT22;25518;47.878;15.914;2023-10-31T16:38:32;9.00;99.90
39849;DHT22;25518;47.878;15.914;2023-10-31T16:41:23;9.00;99.90
39849;DHT22;25518;47.878;15.914;2023-10-31T16:44:15;9.00;99.90
39849;DHT22;25518;47.878;15.914;2023-10-31T16:47:06;8.90;99.90
39849;DHT22;25518;47.878;15.914;2023-10-31T16:49:58;8.80;99.90
39849;DHT22;25518;47.878;15.914;2023-10-31T16:52:49;8.60;99.90
39849;DHT22;25518;47.878;15.914;2023-10-31T16:55:41;8.70;99.90
39849;DHT22;25518;47.878;15.914;2023-10-31T16:58:32;8.70;99.90
39849;DHT22;25518;47.878;15.914;2023-10-31T17:01:24;8.70;99.90
39849;DHT22;25518;47.878;15.914;2023-10-31T17:04:15;8.80;99.90
39849;DHT22;25518;47.878;15.914;2023-10-31T17:07:07;8.80;99.90
39849;DHT22;25518;47.878;15.914;2023-10-31T17:09:59;8.80;99.90
39849;DHT22;25518;47.878;15.914;2023-10-31T17:12:50;8.80;99.90
39849;DHT22;25518;47.878;15.914;2023-10-31T17:15:41;8.90;99.90
39849;DHT22;25518;47.878;15.914;2023-10-31T17:18:33;9.00;99.90
39849;DHT22;25518;47.878;15.914;2023-10-31T17:21:24;8.90;99.90
39849;DHT22;25518;47.878;15.914;2023-10-31T17:24:15;6.70;99.90
39849;DHT22;25518;47.878;15.914;2023-10-31T17:27:06;9.00;99.90
39849;DHT22;25518;47.878;15.914;2023-10-31T17:29:58;9.00;99.90
39849;DHT22;25518;47.878;15.914;2023-10-31T17:32:50;9.10;99.90
39849;DHT22;25518;47.878;15.914;2023-10-31T17:35:41;9.10;99.90
39849;DHT22;25518;47.878;15.914;2023-10-31T17:38:33;9.10;99.90
39849;DHT22;25518;47.878;15.914;2023-10-31T17:41:24;9.10;99.90
39849;DHT22;25518;47.878;15.914;2023-10-31T17:44:15;9.10;99.90
39849;DHT22;25518;47.878;15.914;2023-10-31T17:47:06;9.10;99.90
39849;DHT22;25518;47.878;15.914;2023-10-31T17:49:58;9.10;99.90
39849;DHT22;25518;47.878;15.914;2023-10-31T17:52:49;9.10;99.90
39849;DHT22;25518;47.878;15.914;2023-10-31T17:55:41;9.10;99.90
39849;DHT22;25518;47.878;15.914;2023-10-31T17:58:33;9.20;99.90
39849;DHT22;25518;47.878;15.914;2023-10-31T18:01:24;9.30;99.90
39849;DHT22;25518;47.878;15.914;2023-10-31T18:04:15;9.20;99.90
39849;DHT22;25518;47.878;15.914;2023-10-31T18:07:07;9.20;99.90
39849;DHT22;25518;47.878;15.914;2023-10-31T18:09:59;9.10;99.90
39849;DHT22;25518;47.878;15.914;2023-10-31T18:12:50;9.20;99.90
39849;DHT22;25518;47.878;15.914;2023-10-31T18:15:42;9.20;99.90
39849;DHT22;25518;47.878;15.914;2023-10-31T18:18:33;9.30;99.90
39849;DHT22;25518;47.878;15.914;2023-10-31T18:21:25;9.30;99.90
39849;DHT22;25518;47.878;15.914;2023-10-31T18:24:16;9.20;99.90
39849;DHT22;25518;47.878;15.914;2023-10-31T18:27:07;9.50;99.90
39849;DHT22;25518;47.878;15.914;2023-10-31T18:29:59;9.50;99.90
39849;DHT22;25518;47.878;15.914;2023-10-31T18:32:50;9.60;99.90
39849;DHT22;25518;47.878;15.914;2023-10-31T18:35:41;9.50;99.90
39849;DHT22;25518;47.878;15.914;2023-10-31T18:38:32;9.50;99.90
39849;DHT22;25518;47.878;15.914;2023-10-31T18:41:25;9.50;99.90
39849;DHT22;25518;47.878;15.914;2023-10-31T18:44:19;9.40;99.90
39849;DHT22;25518;47.878;15.914;2023-10-31T18:47:10;8.40;99.90
39849;DHT22;25518;47.878;15.914;2023-10-31T18:50:02;9.40;99.90
39849;DHT22;25518;47.878;15.914;2023-10-31T18:52:53;9.40;99.90
39849;DHT22;25518;47.878;15.914;2023-10-31T18:55:44;9.30;99.90
39849;DHT22;25518;47.878;15.914;2023-10-31T18:58:36;9.40;99.90
39849;DHT22;25518;47.878;15.914;2023-10-31T19:01:27;9.40;99.90
39849;DHT22;25518;47.878;15.914;2023-10-31T19:04:18;9.30;99.90
39849;DHT22;25518;47.878;15.914;2023-10-31T19:07:10;9.50;99.90
39849;DHT22;25518;47.878;15.914;2023-10-31T19:10:01;9.50;99.90
39849;DHT22;25518;47.878;15.914;2023-10-31T19:12:52;9.50;99.90
39849;DHT22;25518;47.878;15.914;2023-10-31T19:15:43;9.50;99.90
39849;DHT22;25518;47.878;15.914;2023-10-31T19:18:35;9.50;99.90
39849;DHT22;25518;47.878;15.914;2023-10-31T19:21:27;9.50;99.90
39849;DHT22;25518;47.878;15.914;2023-10-31T19:24:18;9.50;99.90
39849;DHT22;25518;47.878;15.914;2023-10-31T19:27:09;9.50;99.90
39849;DHT22;25518;47.878;15.914;2023-10-31T19:30:01;9.60;99.90
39849;DHT22;25518;47.878;15.914;2023-10-31T19:32:52;9.60;99.90
39849;DHT22;25518;47.878;15.914;2023-10-31T19:35:44;9.70;99.90
39849;DHT22;25518;47.878;15.914;2023-10-31T19:38:35;9.80;99.90
39849;DHT22;25518;47.878;15.914;2023-10-31T19:41:30;9.70;99.90
39849;DHT22;25518;47.878;15.914;2023-10-31T19:44:22;8.80;99.90
39849;DHT22;25518;47.878;15.914;2023-10-31T19:47:18;9.70;99.90
39849;DHT22;25518;47.878;15.914;2023-10-31T19:50:10;9.70;99.90
39849;DHT22;25518;47.878;15.914;2023-10-31T19:53:02;9.70;99.90
39849;DHT22;25518;47.878;15.914;2023-10-31T19:55:54;9.70;99.90